createdAt,value
2022-10-11T00:00:06.553Z,803
2022-10-11T00:00:58.358Z,762
2022-10-11T00:01:50.084Z,780
2022-10-11T00:02:41.858Z,793
2022-10-11T00:03:33.592Z,772
2022-10-11T00:04:25.340Z,777
2022-10-11T00:05:17.105Z,766
2022-10-11T00:06:09.253Z,778
2022-10-11T00:07:00.554Z,739
2022-10-11T00:07:52.355Z,753
2022-10-11T00:08:44.132Z,759
2022-10-11T00:09:35.874Z,738
2022-10-11T00:10:27.647Z,761
2022-10-11T00:11:19.354Z,749
2022-10-11T00:12:11.169Z,729
2022-10-11T00:13:02.906Z,737
2022-10-11T00:13:54.662Z,736
2022-10-11T00:14:46.413Z,720
2022-10-11T00:15:38.182Z,732
2022-10-11T00:16:29.830Z,737
2022-10-11T00:17:21.678Z,717
2022-10-11T00:18:13.423Z,721
2022-10-11T00:19:05.220Z,739
2022-10-11T00:19:56.954Z,729
2022-10-11T00:20:48.715Z,721
2022-10-11T00:21:40.468Z,710
2022-10-11T00:22:32.216Z,710
2022-10-11T00:23:23.970Z,709
2022-10-11T00:24:15.730Z,711
2022-10-11T00:25:07.466Z,703
2022-10-11T00:25:59.249Z,697
2022-10-11T00:26:50.990Z,717
2022-10-11T00:27:42.754Z,704
2022-10-11T00:28:34.570Z,705
2022-10-11T00:29:26.255Z,710
2022-10-11T00:30:18.042Z,700
2022-10-11T00:31:09.701Z,687
2022-10-11T00:32:01.506Z,684
2022-10-11T00:32:53.276Z,682
2022-10-11T00:33:45.035Z,668
2022-10-11T00:34:36.801Z,665
2022-10-11T00:35:28.519Z,653
2022-10-11T00:36:20.306Z,676
2022-10-11T00:37:12.030Z,671
2022-10-11T00:38:03.821Z,667
2022-10-11T00:38:55.538Z,664
2022-10-11T00:39:47.311Z,665
2022-10-11T00:40:39.056Z,671
2022-10-11T00:41:30.760Z,660
2022-10-11T00:42:22.562Z,677
2022-10-11T00:43:14.316Z,658
2022-10-11T00:44:06.065Z,651
2022-10-11T00:44:57.821Z,663
2022-10-11T00:45:49.638Z,652
2022-10-11T00:46:41.313Z,653
2022-10-11T00:47:33.073Z,665
2022-10-11T00:48:24.850Z,653
2022-10-11T00:49:16.581Z,651
2022-10-11T00:50:08.357Z,661
2022-10-11T00:51:00.015Z,645
2022-10-11T00:51:51.851Z,633
2022-10-11T00:52:43.591Z,640
2022-10-11T00:53:35.378Z,616
2022-10-11T00:54:27.098Z,632
2022-10-11T00:55:18.875Z,641
2022-10-11T00:56:10.599Z,624
2022-10-11T00:57:02.381Z,633
2022-10-11T00:57:54.107Z,640
2022-10-11T00:58:45.887Z,630
2022-10-11T00:59:37.626Z,625
2022-10-11T01:00:29.384Z,633
2022-10-11T01:01:21.152Z,626
2022-10-11T01:02:12.887Z,620
2022-10-11T01:03:04.632Z,628
2022-10-11T01:03:56.392Z,631
2022-10-11T01:04:48.148Z,631
2022-10-11T01:05:39.811Z,627
2022-10-11T01:06:31.650Z,628
2022-10-11T01:07:23.410Z,626
2022-10-11T01:08:15.158Z,619
2022-10-11T01:09:06.916Z,624
2022-10-11T01:09:58.660Z,622
2022-10-11T01:10:50.426Z,623
2022-10-11T01:11:42.154Z,618
2022-10-11T01:12:33.920Z,633
2022-10-11T01:13:25.658Z,627
2022-10-11T01:14:17.414Z,620
2022-10-11T01:15:09.171Z,620
2022-10-11T01:16:01.109Z,631
2022-10-11T01:16:52.656Z,623
2022-10-11T01:17:44.412Z,619
2022-10-11T01:18:36.147Z,615
2022-10-11T01:19:27.935Z,623
2022-10-11T01:20:19.564Z,610
2022-10-11T01:21:11.413Z,618
2022-10-11T01:22:03.155Z,618
2022-10-11T01:22:54.913Z,626
2022-10-11T01:23:46.647Z,630
2022-10-11T01:24:38.413Z,620
2022-10-11T01:25:30.128Z,608
2022-10-11T01:26:21.925Z,615
2022-10-11T01:27:13.666Z,619
2022-10-11T01:28:05.425Z,622
2022-10-11T01:28:57.223Z,618
2022-10-11T01:29:48.924Z,615
2022-10-11T01:30:40.652Z,619
2022-10-11T01:31:32.421Z,599
2022-10-11T01:32:24.158Z,597
2022-10-11T01:33:15.922Z,607
2022-10-11T01:34:07.685Z,607
2022-10-11T01:34:59.432Z,592
2022-10-11T01:35:51.180Z,599
2022-10-11T01:36:42.925Z,608
2022-10-11T01:37:34.668Z,614
2022-10-11T01:38:26.417Z,611
2022-10-11T01:39:18.164Z,609
2022-10-11T01:40:09.845Z,610
2022-10-11T01:41:01.707Z,612
2022-10-11T01:41:53.450Z,602
2022-10-11T01:42:45.171Z,596
2022-10-11T01:43:36.943Z,598
2022-10-11T01:44:28.675Z,602
2022-10-11T01:45:20.462Z,609
2022-10-11T01:46:12.188Z,606
2022-10-11T01:47:03.951Z,618
2022-10-11T01:47:55.681Z,607
2022-10-11T01:48:47.450Z,598
2022-10-11T01:49:39.209Z,599
2022-10-11T01:50:30.958Z,598
2022-10-11T01:51:22.723Z,596
2022-10-11T01:52:14.466Z,596
2022-10-11T01:53:06.229Z,593
2022-10-11T01:53:57.965Z,591
2022-10-11T01:55:08.740Z,593
2022-10-11T01:55:41.464Z,593
2022-10-11T01:56:33.232Z,587
2022-10-11T01:57:24.961Z,592
2022-10-11T01:58:16.701Z,592
2022-10-11T01:59:08.476Z,588
2022-10-11T02:00:00.149Z,590
2022-10-11T02:00:51.997Z,579
2022-10-11T02:01:43.849Z,588
2022-10-11T02:02:35.486Z,578
2022-10-11T02:03:27.227Z,570
2022-10-11T02:04:18.976Z,588
2022-10-11T02:05:10.710Z,577
2022-10-11T02:06:02.937Z,585
2022-10-11T02:06:54.206Z,594
2022-10-11T02:07:45.969Z,576
2022-10-11T02:08:37.729Z,583
2022-10-11T02:09:29.497Z,594
2022-10-11T02:10:21.240Z,586
2022-10-11T02:11:12.991Z,588
2022-10-11T02:12:04.745Z,593
2022-10-11T02:12:56.489Z,589
2022-10-11T02:13:48.229Z,588
2022-10-11T02:14:39.976Z,589
2022-10-11T02:15:31.748Z,592
2022-10-11T02:16:23.539Z,589
2022-10-11T02:17:15.252Z,588
2022-10-11T02:18:07.029Z,589
2022-10-11T02:18:58.760Z,594
2022-10-11T02:19:50.528Z,597
2022-10-11T02:20:42.260Z,591
2022-10-11T02:21:34.032Z,596
2022-10-11T02:22:25.762Z,592
2022-10-11T02:23:17.549Z,594
2022-10-11T02:24:09.261Z,594
2022-10-11T02:25:01.015Z,606
2022-10-11T02:25:52.763Z,606
2022-10-11T02:26:44.534Z,594
2022-10-11T02:27:36.265Z,603
2022-10-11T02:28:28.089Z,600
2022-10-11T02:29:19.698Z,595
2022-10-11T02:30:11.527Z,589
2022-10-11T02:31:03.287Z,588
2022-10-11T02:31:55.028Z,585
2022-10-11T02:32:46.769Z,584
2022-10-11T02:33:38.540Z,591
2022-10-11T02:34:30.186Z,581
2022-10-11T02:35:22.022Z,582
2022-10-11T02:36:13.766Z,582
2022-10-11T02:37:05.533Z,589
2022-10-11T02:37:57.260Z,582
2022-10-11T02:38:49.035Z,593
2022-10-11T02:39:40.763Z,570
2022-10-11T02:40:32.538Z,565
2022-10-11T02:41:24.257Z,571
2022-10-11T02:42:16.024Z,570
2022-10-11T02:43:07.752Z,569
2022-10-11T02:43:59.523Z,579
2022-10-11T02:44:51.253Z,589
2022-10-11T02:45:43.030Z,580
2022-10-11T02:46:34.753Z,586
2022-10-11T02:47:26.519Z,576
2022-10-11T02:48:18.253Z,576
2022-10-11T02:49:09.931Z,594
2022-10-11T02:50:01.793Z,583
2022-10-11T02:50:53.512Z,584
2022-10-11T02:51:45.272Z,589
2022-10-11T02:52:37.020Z,584
2022-10-11T02:53:28.751Z,579
2022-10-11T02:54:20.448Z,574
2022-10-11T02:55:12.268Z,589
2022-10-11T02:56:04.360Z,579
2022-10-11T02:56:55.774Z,591
2022-10-11T02:57:47.522Z,589
2022-10-11T02:58:39.242Z,578
2022-10-11T02:59:31.007Z,587
2022-10-11T03:00:22.738Z,579
2022-10-11T03:01:14.615Z,589
2022-10-11T03:02:06.372Z,574
2022-10-11T03:02:58.029Z,573
2022-10-11T03:03:49.655Z,563
2022-10-11T03:04:41.509Z,570
2022-10-11T03:05:33.233Z,580
2022-10-11T03:06:24.990Z,579
2022-10-11T03:07:16.730Z,580
2022-10-11T03:08:08.488Z,594
2022-10-11T03:09:00.139Z,593
2022-10-11T03:09:51.978Z,584
2022-10-11T03:10:43.724Z,569
2022-10-11T03:11:35.492Z,572
2022-10-11T03:12:27.227Z,582
2022-10-11T03:13:19.004Z,584
2022-10-11T03:14:10.703Z,581
2022-10-11T03:15:02.400Z,578
2022-10-11T03:16:02.626Z,579
2022-10-11T03:16:45.972Z,575
2022-10-11T03:17:37.790Z,579
2022-10-11T03:18:29.466Z,574
2022-10-11T03:19:21.186Z,575
2022-10-11T03:20:12.968Z,576
2022-10-11T03:21:04.697Z,585
2022-10-11T03:21:56.434Z,583
2022-10-11T03:22:48.174Z,578
2022-10-11T03:23:39.867Z,575
2022-10-11T03:24:31.671Z,585
2022-10-11T03:25:23.437Z,580
2022-10-11T03:26:15.164Z,588
2022-10-11T03:27:06.929Z,588
2022-10-11T03:27:58.662Z,593
2022-10-11T03:28:50.390Z,582
2022-10-11T03:29:42.158Z,578
2022-10-11T03:30:33.932Z,580
2022-10-11T03:31:25.637Z,584
2022-10-11T03:32:17.395Z,579
2022-10-11T03:33:09.138Z,592
2022-10-11T03:34:00.810Z,585
2022-10-11T03:34:52.637Z,585
2022-10-11T03:35:44.382Z,579
2022-10-11T03:36:36.133Z,585
2022-10-11T03:37:27.880Z,580
2022-10-11T03:38:19.615Z,579
2022-10-11T03:39:11.374Z,584
2022-10-11T03:40:03.092Z,583
2022-10-11T03:40:54.889Z,581
2022-10-11T03:41:46.605Z,579
2022-10-11T03:42:38.377Z,584
2022-10-11T03:43:30.022Z,581
2022-10-11T03:44:21.866Z,578
2022-10-11T03:45:13.615Z,582
2022-10-11T03:46:05.739Z,576
2022-10-11T03:46:57.078Z,584
2022-10-11T03:47:48.838Z,589
2022-10-11T03:48:40.540Z,590
2022-10-11T03:49:32.326Z,583
2022-10-11T03:50:24.074Z,594
2022-10-11T03:51:15.826Z,605
2022-10-11T03:52:07.567Z,597
2022-10-11T03:52:59.321Z,594
2022-10-11T03:53:51.071Z,610
2022-10-11T03:54:42.808Z,602
2022-10-11T03:55:34.546Z,595
2022-10-11T03:56:26.300Z,585
2022-10-11T03:57:18.030Z,580
2022-10-11T03:58:09.754Z,588
2022-10-11T03:59:01.542Z,593
2022-10-11T03:59:53.297Z,587
2022-10-11T04:00:45.020Z,581
2022-10-11T04:01:36.804Z,586
2022-10-11T04:02:28.509Z,588
2022-10-11T04:03:20.244Z,592
2022-10-11T04:04:11.999Z,599
2022-10-11T04:05:03.758Z,600
2022-10-11T04:05:55.491Z,598
2022-10-11T04:06:47.247Z,596
2022-10-11T04:07:38.905Z,605
2022-10-11T04:08:30.735Z,598
2022-10-11T04:09:22.459Z,595
2022-10-11T04:10:14.216Z,592
2022-10-11T04:11:05.950Z,608
2022-10-11T04:11:57.710Z,617
2022-10-11T04:12:49.441Z,605
2022-10-11T04:13:41.200Z,599
2022-10-11T04:14:32.949Z,605
2022-10-11T04:15:24.692Z,608
2022-10-11T04:16:16.447Z,604
2022-10-11T04:17:08.178Z,598
2022-10-11T04:17:59.837Z,600
2022-10-11T04:18:51.670Z,605
2022-10-11T04:19:43.391Z,608
2022-10-11T04:20:35.155Z,598
2022-10-11T04:21:26.895Z,586
2022-10-11T04:22:18.659Z,590
2022-10-11T04:23:10.319Z,600
2022-10-11T04:24:02.140Z,592
2022-10-11T04:24:53.875Z,598
2022-10-11T04:25:45.630Z,600
2022-10-11T04:26:37.370Z,589
2022-10-11T04:27:29.120Z,586
2022-10-11T04:28:20.930Z,594
2022-10-11T04:29:12.620Z,593
2022-10-11T04:30:04.368Z,603
2022-10-11T04:30:56.117Z,596
2022-10-11T04:31:47.839Z,592
2022-10-11T04:32:39.602Z,601
2022-10-11T04:33:31.337Z,593
2022-10-11T04:34:23.084Z,599
2022-10-11T04:35:14.837Z,606
2022-10-11T04:36:07.214Z,595
2022-10-11T04:36:58.311Z,590
2022-10-11T04:37:50.011Z,600
2022-10-11T04:38:41.806Z,599
2022-10-11T04:39:33.546Z,593
2022-10-11T04:40:25.289Z,599
2022-10-11T04:41:17.045Z,607
2022-10-11T04:42:08.771Z,592
2022-10-11T04:43:00.527Z,599
2022-10-11T04:43:52.264Z,596
2022-10-11T04:44:44.028Z,592
2022-10-11T04:45:35.739Z,596
2022-10-11T04:46:27.507Z,595
2022-10-11T04:47:19.228Z,596
2022-10-11T04:48:11.022Z,597
2022-10-11T04:49:02.720Z,605
2022-10-11T04:49:54.472Z,599
2022-10-11T04:50:46.203Z,600
2022-10-11T04:51:37.971Z,599
2022-10-11T04:52:29.707Z,605
2022-10-11T04:53:21.463Z,609
2022-10-11T04:54:13.183Z,603
2022-10-11T04:55:04.934Z,603
2022-10-11T04:55:56.687Z,597
2022-10-11T04:56:48.431Z,607
2022-10-11T04:57:40.103Z,601
2022-10-11T04:58:31.938Z,603
2022-10-11T04:59:23.663Z,608
2022-10-11T05:00:15.414Z,602
2022-10-11T05:01:07.159Z,607
2022-10-11T05:01:58.974Z,601
2022-10-11T05:02:50.623Z,600
2022-10-11T05:03:42.379Z,607
2022-10-11T05:04:34.106Z,590
2022-10-11T05:05:25.872Z,598
2022-10-11T05:06:17.584Z,594
2022-10-11T05:07:09.354Z,606
2022-10-11T05:08:00.995Z,595
2022-10-11T05:08:52.856Z,589
2022-10-11T05:09:44.561Z,593
2022-10-11T05:10:36.337Z,599
2022-10-11T05:11:28.042Z,607
2022-10-11T05:12:19.798Z,598
2022-10-11T05:13:11.538Z,596
2022-10-11T05:14:03.295Z,591
2022-10-11T05:14:55.023Z,595
2022-10-11T05:15:46.783Z,606
2022-10-11T05:16:38.513Z,599
2022-10-11T05:17:30.208Z,620
2022-10-11T05:18:21.992Z,635
2022-10-11T05:19:13.773Z,624
2022-10-11T05:20:05.491Z,641
2022-10-11T05:20:57.241Z,631
2022-10-11T05:21:48.956Z,602
2022-10-11T05:22:40.716Z,605
2022-10-11T05:23:32.428Z,618
2022-10-11T05:24:24.212Z,604
2022-10-11T05:25:15.913Z,605
2022-10-11T05:26:08.331Z,598
2022-10-11T05:27:03.196Z,601
2022-10-11T05:27:51.145Z,599
2022-10-11T05:28:43.009Z,608
2022-10-11T05:29:34.626Z,619
2022-10-11T05:30:26.362Z,624
2022-10-11T05:31:18.115Z,635
2022-10-11T05:32:09.851Z,624
2022-10-11T05:33:01.648Z,608
2022-10-11T05:33:53.333Z,608
2022-10-11T05:34:45.067Z,613
2022-10-11T05:35:36.790Z,615
2022-10-11T05:36:28.551Z,609
2022-10-11T05:37:20.195Z,608
2022-10-11T05:38:12.022Z,617
2022-10-11T05:39:03.749Z,618
2022-10-11T05:39:55.517Z,620
2022-10-11T05:40:47.235Z,627
2022-10-11T05:41:38.988Z,620
2022-10-11T05:42:30.704Z,617
2022-10-11T05:43:22.466Z,615
2022-10-11T05:44:14.181Z,619
2022-10-11T05:45:05.921Z,616
2022-10-11T05:45:57.675Z,615
2022-10-11T05:46:49.418Z,620
2022-10-11T05:47:41.152Z,630
2022-10-11T05:48:32.898Z,634
2022-10-11T05:49:24.643Z,635
2022-10-11T05:50:19.734Z,635
2022-10-11T05:51:08.112Z,612
2022-10-11T05:51:59.877Z,614
2022-10-11T05:52:51.586Z,622
2022-10-11T05:53:43.343Z,616
2022-10-11T05:54:35.052Z,615
2022-10-11T05:55:26.994Z,623
2022-10-11T05:56:18.520Z,622
2022-10-11T05:57:10.214Z,618
2022-10-11T05:58:02.021Z,617
2022-10-11T05:58:55.649Z,621
2022-10-11T05:59:45.501Z,624
2022-10-11T06:00:37.286Z,621
2022-10-11T06:01:29.067Z,625
2022-10-11T06:02:20.667Z,624
2022-10-11T06:03:12.458Z,623
2022-10-11T06:04:04.229Z,632
2022-10-11T06:04:55.936Z,626
2022-10-11T06:05:47.682Z,616
2022-10-11T06:06:39.404Z,619
2022-10-11T06:07:31.158Z,612
2022-10-11T06:08:22.893Z,620
2022-10-11T06:09:14.628Z,624
2022-10-11T06:10:06.307Z,636
2022-10-11T06:10:58.105Z,638
2022-10-11T06:11:49.828Z,631
2022-10-11T06:12:41.584Z,622
2022-10-11T06:13:33.327Z,626
2022-10-11T06:14:25.065Z,619
2022-10-11T06:15:16.787Z,615
2022-10-11T06:16:08.761Z,613
2022-10-11T06:17:00.189Z,604
2022-10-11T06:17:52.028Z,608
2022-10-11T06:18:43.767Z,610
2022-10-11T06:19:35.483Z,607
2022-10-11T06:20:27.227Z,608
2022-10-11T06:21:18.960Z,604
2022-10-11T06:22:10.615Z,600
2022-10-11T06:23:02.460Z,601
2022-10-11T06:23:59.843Z,605
2022-10-11T06:24:45.901Z,601
2022-10-11T06:25:37.659Z,604
2022-10-11T06:26:29.388Z,608
2022-10-11T06:27:21.125Z,599
2022-10-11T06:28:12.938Z,599
2022-10-11T06:29:04.581Z,604
2022-10-11T06:29:56.333Z,602
2022-10-11T06:30:48.042Z,601
2022-10-11T06:31:39.857Z,600
2022-10-11T06:32:31.513Z,600
2022-10-11T06:33:23.264Z,598
2022-10-11T06:34:14.987Z,597
2022-10-11T06:35:06.674Z,595
2022-10-11T06:35:58.460Z,626
2022-10-11T06:36:50.107Z,637
2022-10-11T06:37:41.933Z,649
2022-10-11T06:38:33.700Z,651
2022-10-11T06:39:25.416Z,656
2022-10-11T06:40:17.157Z,636
2022-10-11T06:41:08.872Z,662
2022-10-11T06:42:00.580Z,666
2022-10-11T06:42:52.333Z,679
2022-10-11T06:43:44.104Z,684
2022-10-11T06:44:35.799Z,679
2022-10-11T06:45:27.560Z,677
2022-10-11T06:46:19.262Z,714
2022-10-11T06:47:11.004Z,702
2022-10-11T06:48:02.733Z,700
2022-10-11T06:48:54.492Z,662
2022-10-11T06:49:46.202Z,687
2022-10-11T06:50:58.382Z,709
2022-10-11T06:51:29.672Z,697
2022-10-11T06:52:21.417Z,704
2022-10-11T06:53:13.161Z,697
2022-10-11T06:54:04.883Z,697
2022-10-11T06:54:56.618Z,709
2022-10-11T06:55:48.349Z,713
2022-10-11T06:56:40.050Z,708
2022-10-11T06:57:31.834Z,708
2022-10-11T06:58:23.540Z,691
2022-10-11T06:59:15.298Z,686
2022-10-11T07:00:10.298Z,695
2022-10-11T07:00:58.840Z,707
2022-10-11T07:01:50.459Z,706
2022-10-11T07:02:42.235Z,702
2022-10-11T07:03:33.953Z,685
2022-10-11T07:04:25.703Z,686
2022-10-11T07:05:17.421Z,699
2022-10-11T07:06:09.950Z,668
2022-10-11T07:07:00.878Z,663
2022-10-11T07:07:52.645Z,688
2022-10-11T07:08:44.351Z,683
2022-10-11T07:09:36.110Z,662
2022-10-11T07:10:27.851Z,671
2022-10-11T07:11:19.585Z,668
2022-10-11T07:12:11.297Z,658
2022-10-11T07:13:03.049Z,657
2022-10-11T07:13:54.779Z,659
2022-10-11T07:14:46.517Z,650
2022-10-11T07:15:38.332Z,645
2022-10-11T07:16:29.994Z,652
2022-10-11T07:17:21.723Z,661
2022-10-11T07:18:13.443Z,652
2022-10-11T07:19:05.170Z,658
2022-10-11T07:19:56.914Z,663
2022-10-11T07:20:48.669Z,664
2022-10-11T07:21:40.303Z,648
2022-10-11T07:22:32.116Z,660
2022-10-11T07:23:23.890Z,649
2022-10-11T07:24:15.581Z,662
2022-10-11T07:25:07.388Z,649
2022-10-11T07:25:59.053Z,657
2022-10-11T07:26:50.857Z,645
2022-10-11T07:27:42.520Z,643
2022-10-11T07:28:34.341Z,642
2022-10-11T07:29:26.006Z,646
2022-10-11T07:30:17.749Z,641
2022-10-11T07:31:09.458Z,635
2022-10-11T07:32:01.151Z,647
2022-10-11T07:32:52.934Z,638
2022-10-11T07:33:44.692Z,643
2022-10-11T07:34:36.407Z,630
2022-10-11T07:35:28.204Z,636
2022-10-11T07:36:19.875Z,631
2022-10-11T07:37:11.640Z,626
2022-10-11T07:38:03.345Z,629
2022-10-11T07:38:55.092Z,644
2022-10-11T07:39:46.839Z,628
2022-10-11T07:40:38.565Z,638
2022-10-11T07:41:30.203Z,628
2022-10-11T07:42:22.043Z,640
2022-10-11T07:43:13.761Z,620
2022-10-11T07:44:05.526Z,623
2022-10-11T07:44:57.232Z,627
2022-10-11T07:45:48.984Z,634
2022-10-11T07:46:40.625Z,635
2022-10-11T07:47:32.355Z,635
2022-10-11T07:48:24.187Z,629
2022-10-11T07:49:15.929Z,639
2022-10-11T07:50:07.676Z,635
2022-10-11T07:50:59.400Z,629
2022-10-11T07:51:51.141Z,619
2022-10-11T07:52:42.862Z,626
2022-10-11T07:53:34.589Z,642
2022-10-11T07:54:26.332Z,643
2022-10-11T07:55:18.057Z,641
2022-10-11T07:56:09.798Z,624
2022-10-11T07:57:01.443Z,619
2022-10-11T07:57:53.263Z,627
2022-10-11T07:58:44.994Z,629
2022-10-11T07:59:36.731Z,627
2022-10-11T08:00:28.453Z,629
2022-10-11T08:01:20.239Z,620
2022-10-11T08:02:11.959Z,635
2022-10-11T08:03:03.667Z,630
2022-10-11T08:03:55.394Z,611
2022-10-11T08:04:47.135Z,615
2022-10-11T08:05:38.863Z,613
2022-10-11T08:06:30.744Z,623
2022-10-11T08:07:22.330Z,624
2022-10-11T08:08:14.131Z,629
2022-10-11T08:09:05.788Z,608
2022-10-11T08:09:57.541Z,619
2022-10-11T08:10:49.254Z,610
2022-10-11T08:11:41.014Z,617
2022-10-11T08:12:32.717Z,610
2022-10-11T08:13:24.479Z,607
2022-10-11T08:14:16.200Z,618
2022-10-11T08:15:07.932Z,621
2022-10-11T08:15:59.656Z,620
2022-10-11T08:16:51.411Z,619
2022-10-11T08:17:43.132Z,621
2022-10-11T08:18:34.876Z,617
2022-10-11T08:19:26.623Z,620
2022-10-11T08:20:18.355Z,615
2022-10-11T08:21:10.084Z,619
2022-10-11T08:22:01.838Z,608
2022-10-11T08:22:53.536Z,616
2022-10-11T08:23:45.286Z,616
2022-10-11T08:24:38.471Z,614
2022-10-11T08:25:28.763Z,598
2022-10-11T08:26:20.406Z,609
2022-10-11T08:27:12.247Z,617
2022-10-11T08:28:03.984Z,591
2022-10-11T08:28:55.865Z,586
2022-10-11T08:29:47.445Z,601
2022-10-11T08:30:39.178Z,598
2022-10-11T08:31:30.849Z,598
2022-10-11T08:32:22.664Z,606
2022-10-11T08:33:14.385Z,594
2022-10-11T08:34:06.130Z,600
2022-10-11T08:34:57.878Z,587
2022-10-11T08:35:49.618Z,578
2022-10-11T08:36:41.343Z,585
2022-10-11T08:37:33.083Z,602
2022-10-11T08:38:24.818Z,599
2022-10-11T08:39:16.556Z,589
2022-10-11T08:40:08.295Z,604
2022-10-11T08:41:00.047Z,594
2022-10-11T08:41:51.771Z,591
2022-10-11T08:42:43.508Z,597
2022-10-11T08:43:35.245Z,592
2022-10-11T08:44:26.982Z,597
2022-10-11T08:45:18.731Z,594
2022-10-11T08:46:10.394Z,595
2022-10-11T08:47:02.188Z,599
2022-10-11T08:47:53.935Z,609
2022-10-11T08:48:45.655Z,615
2022-10-11T08:49:37.404Z,617
2022-10-11T08:50:29.128Z,591
2022-10-11T08:51:20.809Z,584
2022-10-11T08:52:12.605Z,582
2022-10-11T08:53:04.495Z,583
2022-10-11T08:53:56.088Z,588
2022-10-11T08:54:47.832Z,584
2022-10-11T08:55:39.544Z,574
2022-10-11T08:56:31.304Z,574
2022-10-11T08:57:23.020Z,575
2022-10-11T08:58:14.788Z,578
2022-10-11T08:59:06.488Z,574
2022-10-11T08:59:58.243Z,585
2022-10-11T09:00:50.012Z,572
2022-10-11T09:01:41.742Z,578
2022-10-11T09:02:55.525Z,578
2022-10-11T09:03:25.197Z,534
2022-10-11T09:04:16.908Z,578
2022-10-11T09:05:08.664Z,580
2022-10-11T09:06:00.292Z,578
2022-10-11T09:06:52.133Z,576
2022-10-11T09:07:43.852Z,574
2022-10-11T09:08:35.622Z,575
2022-10-11T09:09:27.338Z,569
2022-10-11T09:10:19.077Z,571
2022-10-11T09:11:10.763Z,562
2022-10-11T09:12:02.549Z,561
2022-10-11T09:12:54.285Z,561
2022-10-11T09:13:46.043Z,558
2022-10-11T09:14:37.764Z,553
2022-10-11T09:15:29.515Z,546
2022-10-11T09:16:21.242Z,548
2022-10-11T09:17:12.971Z,549
2022-10-11T09:18:04.688Z,563
2022-10-11T09:18:56.451Z,566
2022-10-11T09:19:48.156Z,519
2022-10-11T09:20:39.908Z,513
2022-10-11T09:21:31.635Z,508
2022-10-11T09:22:28.092Z,496
2022-10-11T09:23:15.089Z,485
2022-10-11T09:24:06.827Z,467
2022-10-11T09:24:58.545Z,453
2022-10-11T09:25:50.275Z,447
2022-10-11T09:26:41.998Z,452
2022-10-11T09:27:57.828Z,441
2022-10-11T09:28:25.503Z,438
2022-10-11T09:29:17.201Z,433
2022-10-11T09:30:08.896Z,433
2022-10-11T09:31:00.553Z,432
2022-10-11T09:31:52.338Z,428
2022-10-11T09:32:44.082Z,430
2022-10-11T09:33:35.787Z,432
2022-10-11T09:34:27.514Z,425
2022-10-11T09:35:19.213Z,428
2022-10-11T09:36:10.896Z,433
2022-10-11T09:37:02.657Z,432
2022-10-11T09:37:54.383Z,424
2022-10-11T09:38:46.109Z,436
2022-10-11T09:39:37.826Z,442
2022-10-11T09:40:29.536Z,446
2022-10-11T09:41:21.255Z,460
2022-10-11T09:42:12.975Z,460
2022-10-11T09:43:04.698Z,447
2022-10-11T09:43:56.398Z,447
2022-10-11T09:44:48.110Z,447
2022-10-11T09:45:39.837Z,438
2022-10-11T09:46:31.583Z,434
2022-10-11T09:47:23.270Z,435
2022-10-11T09:48:15.016Z,434
2022-10-11T09:49:06.714Z,431
2022-10-11T09:49:58.463Z,428
2022-10-11T09:50:50.153Z,426
2022-10-11T09:51:41.903Z,434
2022-10-11T09:52:33.599Z,428
2022-10-11T09:53:25.415Z,425
2022-10-11T09:54:17.030Z,420
2022-10-11T09:55:08.772Z,423
2022-10-11T09:56:00.389Z,423
2022-10-11T09:56:52.260Z,420
2022-10-11T09:57:43.931Z,426
2022-10-11T09:58:35.647Z,421
2022-10-11T09:59:27.363Z,421
2022-10-11T10:00:19.117Z,421
2022-10-11T10:01:10.782Z,422
2022-10-11T10:02:02.580Z,424
2022-10-11T10:02:54.245Z,428
2022-10-11T10:03:45.961Z,434
2022-10-11T10:04:37.672Z,433
2022-10-11T10:05:29.402Z,431
2022-10-11T10:06:21.101Z,431
2022-10-11T10:07:12.859Z,430
2022-10-11T10:08:05.219Z,435
2022-10-11T10:08:56.275Z,424
2022-10-11T10:09:47.985Z,422
2022-10-11T10:10:39.730Z,438
2022-10-11T10:11:31.330Z,438
2022-10-11T10:12:23.152Z,432
2022-10-11T10:13:14.850Z,425
2022-10-11T10:14:06.588Z,430
2022-10-11T10:14:58.287Z,428
2022-10-11T10:15:50.033Z,425
2022-10-11T10:16:41.741Z,427
2022-10-11T10:17:33.477Z,416
2022-10-11T10:18:25.177Z,419
2022-10-11T10:19:16.906Z,419
2022-10-11T10:20:08.657Z,435
2022-10-11T10:21:00.353Z,432
2022-10-11T10:21:52.076Z,430
2022-10-11T10:22:43.808Z,423
2022-10-11T10:23:35.493Z,425
2022-10-11T10:24:27.239Z,427
2022-10-11T10:25:18.941Z,434
2022-10-11T10:26:10.605Z,438
2022-10-11T10:27:02.412Z,430
2022-10-11T10:27:54.144Z,429
2022-10-11T10:28:45.987Z,433
2022-10-11T10:29:37.616Z,430
2022-10-11T10:30:34.533Z,441
2022-10-11T10:31:20.989Z,444
2022-10-11T10:32:14.679Z,446
2022-10-11T10:33:04.516Z,454
2022-10-11T10:33:56.243Z,451
2022-10-11T10:34:48.001Z,442
2022-10-11T10:35:39.710Z,449
2022-10-11T10:36:31.467Z,478
2022-10-11T10:37:23.199Z,480
2022-10-11T10:38:14.947Z,459
2022-10-11T10:39:06.657Z,456
2022-10-11T10:39:58.419Z,469
2022-10-11T10:40:50.199Z,465
2022-10-11T10:41:41.884Z,460
2022-10-11T10:42:33.600Z,457
2022-10-11T10:43:25.342Z,447
2022-10-11T10:44:17.068Z,446
2022-10-11T10:45:12.276Z,434
2022-10-11T10:46:00.445Z,435
2022-10-11T10:46:52.230Z,435
2022-10-11T10:47:43.943Z,434
2022-10-11T10:49:09.062Z,449
2022-10-11T10:49:53.522Z,443
2022-10-11T10:50:19.103Z,455
2022-10-11T10:51:10.735Z,446
2022-10-11T10:52:02.569Z,446
2022-10-11T10:52:54.254Z,436
2022-10-11T10:53:45.977Z,430
2022-10-11T10:54:37.701Z,430
2022-10-11T10:55:29.412Z,431
2022-10-11T10:56:21.040Z,427
2022-10-11T10:57:12.827Z,417
2022-10-11T10:58:04.519Z,417
2022-10-11T10:58:56.249Z,414
2022-10-11T10:59:47.957Z,431
2022-10-11T11:00:39.692Z,424
2022-10-11T11:01:31.460Z,417
2022-10-11T11:02:40.207Z,409
2022-10-11T11:03:14.816Z,425
2022-10-11T11:04:06.552Z,427
2022-10-11T11:05:50.010Z,427
2022-10-11T11:06:41.659Z,422
2022-10-11T11:07:33.366Z,420
2022-10-11T11:08:25.064Z,420
2022-10-11T11:09:16.783Z,414
2022-10-11T11:10:08.497Z,417
2022-10-11T11:11:00.202Z,417
2022-10-11T11:11:51.911Z,409
2022-10-11T11:12:43.641Z,411
2022-10-11T11:13:35.340Z,412
2022-10-11T11:14:27.077Z,418
2022-10-11T11:15:19.889Z,417
2022-10-11T11:16:10.484Z,408
2022-10-11T11:17:02.147Z,415
2022-10-11T11:17:53.933Z,419
2022-10-11T11:18:45.617Z,417
2022-10-11T11:19:37.345Z,422
2022-10-11T11:20:29.054Z,416
2022-10-11T11:21:20.684Z,416
2022-10-11T11:22:12.489Z,420
2022-10-11T11:23:04.133Z,424
2022-10-11T11:23:55.911Z,429
2022-10-11T11:24:47.632Z,425
2022-10-11T11:25:44.536Z,428
2022-10-11T11:26:31.002Z,431
2022-10-11T11:27:22.805Z,429
2022-10-11T11:28:14.595Z,428
2022-10-11T11:29:06.242Z,440
2022-10-11T11:29:57.981Z,438
2022-10-11T11:30:49.690Z,444
2022-10-11T11:31:41.434Z,443
2022-10-11T11:32:33.139Z,443
2022-10-11T11:33:24.922Z,446
2022-10-11T11:34:16.603Z,449
2022-10-11T11:35:08.349Z,450
2022-10-11T11:36:00.057Z,448
2022-10-11T11:36:51.795Z,458
2022-10-11T11:37:43.529Z,449
2022-10-11T11:38:35.227Z,451
2022-10-11T11:39:26.989Z,465
2022-10-11T11:40:18.726Z,451
2022-10-11T11:41:10.627Z,446
2022-10-11T11:42:02.217Z,460
2022-10-11T11:42:54.139Z,459
2022-10-11T11:43:45.664Z,465
2022-10-11T11:44:37.386Z,459
2022-10-11T11:45:29.136Z,461
2022-10-11T11:46:20.821Z,457
2022-10-11T11:47:12.672Z,489
2022-10-11T11:48:04.332Z,471
2022-10-11T11:48:56.138Z,478
2022-10-11T11:49:47.791Z,485
2022-10-11T11:50:39.543Z,489
2022-10-11T11:51:31.505Z,486
2022-10-11T11:52:23.008Z,492
2022-10-11T11:53:14.732Z,497